createdAt,value
2022-11-29T01:27:45.766Z,996.11
2022-11-29T01:32:24.019Z,996.11
2022-11-29T01:37:23.957Z,996.11
2022-11-29T01:42:23.861Z,996.12
2022-11-29T01:47:23.810Z,996.08
2022-11-29T01:52:23.806Z,996.10
2022-11-29T01:57:23.658Z,996.09
2022-11-29T02:02:23.731Z,996.08
2022-11-29T02:07:23.623Z,996.09
2022-11-29T02:12:23.697Z,996.11
2022-11-29T02:42:22.118Z,996.29
2022-11-29T02:47:21.621Z,996.22
2022-11-29T02:52:21.677Z,996.19
2022-11-29T02:57:21.741Z,996.20
2022-11-29T04:48:15.552Z,996.66
2022-11-29T04:53:14.339Z,996.70
2022-11-29T05:03:01.076Z,996.77
2022-11-29T08:26:36.164Z,998.17
2022-11-29T08:31:36.148Z,998.16
2022-11-29T08:36:36.042Z,998.15
2022-11-29T08:41:36.019Z,998.18
2022-11-29T08:46:43.391Z,998.21
2022-11-29T09:58:44.619Z,998.87
2022-11-29T10:05:12.337Z,998.81
2022-11-29T10:37:21.834Z,998.80
2022-11-29T10:42:21.439Z,998.83
2022-11-29T11:04:09.660Z,998.77
2022-11-29T11:09:09.399Z,998.79
2022-11-29T11:14:10.592Z,998.84
2022-11-29T11:22:18.558Z,998.79
2022-11-29T11:27:18.532Z,998.80
2022-11-29T11:32:18.405Z,998.83
2022-11-29T11:37:18.238Z,998.87
2022-11-29T11:45:03.710Z,998.88
2022-11-29T11:50:03.351Z,998.91
2022-11-29T11:55:03.226Z,998.89
2022-11-29T12:00:06.985Z,998.92
2022-11-29T12:05:03.009Z,998.97
2022-11-29T12:10:02.998Z,998.95
2022-11-29T12:15:02.886Z,998.97
2022-11-29T12:20:02.677Z,999.03
2022-11-29T12:25:02.906Z,999.14
2022-11-29T12:30:02.612Z,999.16
2022-11-29T12:35:05.688Z,999.17
2022-11-29T12:40:02.592Z,999.16
2022-11-29T12:45:02.624Z,999.17
2022-11-29T12:50:02.308Z,999.25
2022-11-29T12:55:02.444Z,999.23
2022-11-29T13:00:02.317Z,999.28
2022-11-29T13:05:02.242Z,999.30
2022-11-29T13:10:02.035Z,999.30
2022-11-29T13:20:00.543Z,999.36
2022-11-29T13:30:17.456Z,999.46
2022-11-29T13:35:17.091Z,999.42
2022-11-29T13:40:17.251Z,999.47
2022-11-29T13:57:26.744Z,999.58
2022-11-29T14:02:26.599Z,999.59
2022-11-29T14:07:26.530Z,999.55
2022-11-29T14:13:56.888Z,999.71
2022-11-29T14:20:13.791Z,999.69
2022-11-29T14:25:42.926Z,999.67
2022-11-29T14:31:24.979Z,999.75
2022-11-29T14:36:24.715Z,999.72
2022-11-29T14:41:24.608Z,999.73
2022-11-29T14:46:29.034Z,999.75
2022-11-29T14:51:25.804Z,999.75
2022-11-29T14:56:24.342Z,999.75
2022-11-29T15:01:24.368Z,999.80
2022-11-29T15:06:24.242Z,999.83
2022-11-29T15:11:24.326Z,999.89
2022-11-29T15:16:24.114Z,999.96
2022-11-29T15:21:27.205Z,1000.02
2022-11-29T15:26:23.957Z,1000.05
2022-11-29T15:31:23.965Z,1000.08
2022-11-29T15:36:23.783Z,1000.19
2022-11-29T15:41:31.281Z,1000.27
2022-11-29T15:46:23.641Z,1000.31
2022-11-29T15:51:23.832Z,1000.34
2022-11-29T15:56:23.625Z,1000.36
2022-11-29T16:01:24.007Z,1000.37
2022-11-29T16:06:23.465Z,1000.43
2022-11-29T16:11:23.609Z,1000.50
2022-11-29T16:16:23.383Z,1000.57
2022-11-29T16:21:26.229Z,1000.55
2022-11-29T16:26:23.228Z,1000.65
2022-11-29T16:31:23.324Z,1000.65
2022-11-29T16:36:23.064Z,1000.76
2022-11-29T16:41:23.004Z,1000.74
2022-11-29T16:46:22.875Z,1000.76
2022-11-29T16:51:23.070Z,1000.78
2022-11-29T16:56:22.859Z,1000.85
2022-11-29T17:01:22.747Z,1000.86
2022-11-29T17:06:22.653Z,1000.86
2022-11-29T17:11:22.634Z,1000.85
2022-11-29T17:16:22.922Z,1000.80
2022-11-29T17:23:15.961Z,1000.82
2022-11-29T17:28:15.992Z,1000.82
2022-11-29T17:33:15.704Z,1000.85
2022-11-29T17:38:15.602Z,1000.90
2022-11-29T17:43:15.687Z,1000.94
2022-11-29T17:48:15.471Z,1001.02
2022-11-29T18:25:37.608Z,1001.28
2022-11-29T18:36:33.908Z,1001.26
2022-11-29T18:41:33.793Z,1001.24
2022-11-29T18:56:38.002Z,1001.43
2022-11-29T19:01:37.742Z,1001.40
2022-11-29T19:30:35.387Z,1001.45
2022-11-29T19:35:32.128Z,1001.40
2022-11-29T19:54:12.707Z,1001.57
2022-11-29T19:59:12.567Z,1001.59
2022-11-29T20:04:12.262Z,1001.70
2022-11-29T20:09:12.196Z,1001.73
2022-11-29T20:14:12.079Z,1001.73
2022-11-29T20:19:12.287Z,1001.70
2022-11-29T20:24:12.050Z,1001.68
2022-11-29T20:29:11.911Z,1001.70
2022-11-29T20:34:12.143Z,1001.66
2022-11-29T20:39:11.782Z,1001.72
2022-11-29T20:44:14.908Z,1001.69
2022-11-29T20:49:11.754Z,1001.78
2022-11-29T20:54:11.671Z,1001.87
2022-11-29T21:02:51.541Z,1001.99
2022-11-29T21:07:51.184Z,1001.92
2022-11-29T21:12:51.187Z,1001.96
2022-11-29T21:17:50.980Z,1002.00
2022-11-29T21:22:50.890Z,1002.02
2022-11-29T21:27:50.957Z,1002.03
2022-11-29T21:32:50.812Z,1002.08
2022-11-29T21:37:50.805Z,1002.12
2022-11-29T21:42:50.817Z,1002.12
2022-11-29T21:47:50.803Z,1002.15
2022-11-29T21:52:53.533Z,1002.16
2022-11-29T21:57:50.552Z,1002.18
2022-11-29T22:02:50.681Z,1002.11
2022-11-29T22:07:50.354Z,1002.14
2022-11-29T22:12:52.620Z,1002.10
2022-11-29T22:17:50.297Z,1002.15
2022-11-29T22:22:51.077Z,1002.12
2022-11-29T22:27:50.126Z,1002.09
2022-11-29T22:32:50.159Z,1002.19
2022-11-29T22:42:12.291Z,1002.25
2022-11-29T22:47:11.848Z,1002.29
2022-11-29T22:52:12.029Z,1002.23
2022-11-29T22:57:11.773Z,1002.23
2022-11-29T23:02:11.940Z,1002.14
2022-11-29T23:11:57.907Z,1002.21
2022-11-29T23:16:57.645Z,1002.20
2022-11-29T23:21:57.578Z,1002.20
2022-11-29T23:26:57.471Z,1002.18
2022-11-29T23:31:57.553Z,1002.27
2022-11-29T23:36:57.459Z,1002.28
2022-11-29T23:41:57.318Z,1002.29
2022-11-29T23:46:57.372Z,1002.24
2022-11-29T23:51:57.218Z,1002.24
2022-11-29T23:56:57.138Z,1002.24
